Time;durP1;ratioP1;P1;durP2;ratioP2;P2;SDS_P1;SDS_P2;PMS_P1;PMS_P2;Temp;Humidity;BMP_temperature;BMP_pressure;BME280_temperature;BME280_humidity;BME280_pressure;Samples;Min_cycle;Max_cycle;Signal;HPM_P1;HPM_P2
2023/11/10 00:01:33;;;;;;;2.87;1.40;;;;;;;6.52;100.00;99638.25;5089637;28;20149;-35
2023/11/10 00:03:58;;;;;;;2.00;0.97;;;;;;;6.53;100.00;99627.25;5089527;28;20024;-35
2023/11/10 00:06:23;;;;;;;3.83;1.47;;;;;;;6.54;100.00;99623.53;5090122;28;20040;-35
2023/11/10 00:08:49;;;;;;;3.23;1.40;;;;;;;6.56;100.00;99615.25;5079190;28;20052;-36
2023/11/10 00:11:15;;;;;;;3.47;1.50;;;;;;;6.58;100.00;99613.13;5076255;28;20024;-35
2023/11/10 00:13:40;;;;;;;2.42;1.15;;;;;;;6.59;100.00;99612.91;5075905;28;20031;-36
2023/11/10 00:16:06;;;;;;;4.93;1.37;;;;;;;6.54;100.00;99602.06;5076664;28;20070;-35
2023/11/10 00:18:32;;;;;;;5.00;1.42;;;;;;;6.61;100.00;99607.28;5076013;28;20020;-35
2023/11/10 00:20:57;;;;;;;2.83;1.10;;;;;;;6.67;100.00;99600.97;5075794;28;20029;-35
2023/11/10 00:23:23;;;;;;;2.17;1.00;;;;;;;6.66;100.00;99599.34;5076576;28;20039;-35
2023/11/10 00:25:48;;;;;;;2.77;1.03;;;;;;;6.70;100.00;99603.19;5075994;28;20396;-35
2023/11/10 00:28:13;;;;;;;3.47;1.17;;;;;;;6.73;100.00;99594.66;5076236;28;20028;-35
2023/11/10 00:30:39;;;;;;;1.97;1.27;;;;;;;6.77;100.00;99601.19;5076471;28;20029;-35
2023/11/10 00:33:04;;;;;;;1.87;0.90;;;;;;;6.77;100.00;99586.94;5076321;28;20066;-35
2023/11/10 00:35:29;;;;;;;2.13;0.80;;;;;;;6.83;100.00;99594.91;5075873;28;20333;-35
2023/11/10 00:37:55;;;;;;;1.93;1.10;;;;;;;6.82;100.00;99589.72;5075699;28;20025;-34
2023/11/10 00:40:21;;;;;;;1.92;0.93;;;;;;;6.82;100.00;99585.19;5075706;28;20308;-35
2023/11/10 00:42:47;;;;;;;2.95;0.90;;;;;;;6.89;100.00;99593.94;5075680;28;20029;-35
2023/11/10 00:45:12;;;;;;;4.30;0.88;;;;;;;6.91;100.00;99599.88;5075371;28;20032;-35
2023/11/10 00:47:38;;;;;;;2.53;1.17;;;;;;;6.92;100.00;99603.38;5076340;28;20082;-34
2023/11/10 00:50:05;;;;;;;3.03;1.10;;;;;;;6.86;100.00;99583.66;5075332;28;20039;-35
2023/11/10 00:52:30;;;;;;;3.20;0.90;;;;;;;6.95;100.00;99602.91;5075463;28;20067;-35
2023/11/10 00:54:56;;;;;;;2.13;0.97;;;;;;;6.88;100.00;99589.63;5075206;28;20052;-35
2023/11/10 00:57:22;;;;;;;;;;;;;;;7.01;100.00;99603.84;5075597;28;20080;-35
2023/11/10 00:59:47;;;;;;;2.30;1.10;;;;;;;6.91;100.00;99591.81;5075083;28;20395;-35
2023/11/10 01:02:12;;;;;;;3.60;1.13;;;;;;;6.97;100.00;99604.28;5075694;28;20032;-35
2023/11/10 01:04:38;;;;;;;2.73;1.00;;;;;;;6.99;100.00;99605.97;5075003;28;20032;-35
2023/11/10 01:07:03;;;;;;;4.00;1.17;;;;;;;7.00;100.00;99604.91;5075502;28;20033;-35
2023/11/10 01:09:28;;;;;;;2.60;0.95;;;;;;;7.02;100.00;99595.53;5075924;28;20403;-34
2023/11/10 01:11:54;;;;;;;4.33;1.87;;;;;;;7.03;100.00;99594.50;5075663;28;20441;-35
2023/11/10 01:14:21;;;;;;;2.40;0.98;;;;;;;7.01;100.00;99582.34;5075254;28;20024;-35
2023/11/10 01:16:46;;;;;;;3.70;1.10;;;;;;;6.94;100.00;99574.41;5075193;28;20028;-34
2023/11/10 01:19:11;;;;;;;3.43;1.10;;;;;;;7.01;100.00;99579.66;5074290;28;20105;-35
2023/11/10 01:21:37;;;;;;;3.07;1.20;;;;;;;6.97;100.00;99569.34;5074316;28;20262;-34
2023/11/10 01:24:04;;;;;;;2.93;0.90;;;;;;;7.03;100.00;99578.38;5074896;28;20032;-35
2023/11/10 01:26:29;;;;;;;3.03;1.00;;;;;;;7.02;100.00;99575.91;5075346;28;20035;-35
2023/11/10 01:28:55;;;;;;;2.93;0.90;;;;;;;7.04;100.00;99579.19;5074435;28;20072;-34
2023/11/10 01:31:21;;;;;;;;;;;;;;;7.07;100.00;99590.25;5075105;28;20024;-35
2023/11/10 01:33:47;;;;;;;3.40;1.20;;;;;;;7.03;100.00;99585.59;5074523;28;19915;-35
2023/11/10 01:36:12;;;;;;;4.50;1.08;;;;;;;7.06;100.00;99577.88;5074533;28;20021;-35
2023/11/10 01:38:37;;;;;;;4.15;1.58;;;;;;;7.06;100.00;99577.06;5074824;28;20107;-35
2023/11/10 01:41:03;;;;;;;4.67;1.27;;;;;;;7.09;100.00;99576.59;5075297;28;20035;-35
2023/11/10 01:43:29;;;;;;;5.47;1.40;;;;;;;6.89;100.00;99548.25;5074391;28;20035;-35
2023/11/10 01:45:55;;;;;;;3.53;1.05;;;;;;;7.04;100.00;99563.06;5074402;28;20103;-35
2023/11/10 01:48:21;;;;;;;5.03;1.20;;;;;;;7.09;100.00;99571.22;5074619;28;20076;-34
2023/11/10 01:50:46;;;;;;;3.72;1.05;;;;;;;7.15;100.00;99570.25;5074662;28;20037;-35
2023/11/10 01:53:13;;;;;;;3.80;1.13;;;;;;;7.14;100.00;99574.00;5074273;28;20070;-34
2023/11/10 01:55:40;;;;;;;3.50;1.60;;;;;;;7.16;100.00;99574.56;5074224;28;20585;-35
2023/11/10 01:58:08;;;;;;;3.53;0.90;;;;;;;7.17;100.00;99576.19;5074478;28;20396;-35
2023/11/10 02:00:33;;;;;;;2.92;0.93;;;;;;;7.16;100.00;99569.19;5074652;28;20070;-34
2023/11/10 02:03:03;;;;;;;3.22;1.17;;;;;;;7.19;100.00;99566.03;5073870;28;20024;-34
2023/11/10 02:05:29;;;;;;;2.28;1.00;;;;;;;7.16;100.00;99561.13;5074309;28;20051;-35
2023/11/10 02:07:55;;;;;;;1.85;0.90;;;;;;;7.07;100.00;99541.06;5073648;28;20032;-35
2023/11/10 02:10:20;;;;;;;2.72;1.08;;;;;;;7.18;100.00;99564.41;5073769;28;20035;-35
2023/11/10 02:13:04;;;;;;;4.30;1.00;;;;;;;7.21;100.00;99563.91;5074243;28;20021;-35
2023/11/10 02:15:29;;;;;;;3.30;0.95;;;;;;;7.19;100.00;99557.97;5073886;28;20020;-34
2023/11/10 02:17:55;;;;;;;1.97;0.70;;;;;;;7.14;100.00;99555.19;5073702;28;20082;-34
2023/11/10 02:20:20;;;;;;;3.45;1.02;;;;;;;7.19;100.00;99555.28;5074638;28;20032;-34
2023/11/10 02:22:47;;;;;;;2.10;0.90;;;;;;;7.19;100.00;99553.41;5073754;28;20020;-34
2023/11/10 02:25:22;;;;;;;3.28;1.00;;;;;;;7.19;100.00;99550.72;5073788;28;20085;-35
2023/11/10 02:27:49;;;;;;;2.75;1.10;;;;;;;7.18;100.00;99551.78;5074017;28;20078;-34
2023/11/10 02:30:15;;;;;;;1.98;0.98;;;;;;;7.10;100.00;99544.09;5074304;28;20479;-35
2023/11/10 02:32:42;;;;;;;2.85;1.10;;;;;;;7.16;100.00;99553.88;5073109;28;20028;-35
2023/11/10 02:35:08;;;;;;;2.22;0.90;;;;;;;7.16;100.00;99547.69;5074184;28;20028;-34
2023/11/10 02:37:34;;;;;;;4.38;1.00;;;;;;;7.16;100.00;99551.19;5073237;28;20107;-34
2023/11/10 02:40:00;;;;;;;3.25;1.05;;;;;;;7.17;100.00;99562.75;5073628;28;20538;-35
2023/11/10 02:42:25;;;;;;;3.80;1.10;;;;;;;7.13;100.00;99557.06;5073824;28;20119;-35
2023/11/10 02:44:51;;;;;;;2.65;0.85;;;;;;;7.04;100.00;99542.38;5073219;28;20052;-34
2023/11/10 02:47:16;;;;;;;2.80;0.93;;;;;;;7.17;100.00;99562.75;5073816;28;20029;-35
2023/11/10 02:49:42;;;;;;;5.40;0.87;;;;;;;7.17;100.00;99571.66;5073514;28;20457;-35
2023/11/10 02:52:07;;;;;;;1.97;0.60;;;;;;;7.16;100.00;99567.31;5074101;28;20028;-34
2023/11/10 02:54:32;;;;;;;2.17;0.70;;;;;;;7.11;100.00;99566.41;5073730;28;20029;-35
2023/11/10 02:56:57;;;;;;;1.80;0.67;;;;;;;7.15;100.00;99573.75;5073588;28;20044;-35
2023/11/10 02:59:23;;;;;;;4.40;1.30;;;;;;;7.13;100.00;99573.19;5073416;28;20472;-34
2023/11/10 03:01:48;;;;;;;1.57;0.80;;;;;;;7.07;100.00;99563.38;5073144;28;20038;-35
2023/11/10 03:04:13;;;;;;;2.57;0.90;;;;;;;7.15;100.00;99581.81;5073379;28;20025;-35
2023/11/10 03:06:39;;;;;;;1.30;0.50;;;;;;;7.07;100.00;99563.38;5073679;28;20539;-34
2023/11/10 03:09:04;;;;;;;1.87;0.80;;;;;;;7.15;100.00;99562.19;5073632;28;20066;-35
2023/11/10 03:11:30;;;;;;;2.27;0.90;;;;;;;7.14;100.00;99568.63;5073296;28;20036;-34
2023/11/10 03:13:55;;;;;;;4.30;0.87;;;;;;;7.14;100.00;99574.00;5073500;28;20354;-34
2023/11/10 03:16:23;;;;;;;1.67;0.83;;;;;;;6.94;100.00;99537.59;5073805;28;20043;-34
2023/11/10 03:18:52;;;;;;;3.42;0.93;;;;;;;7.05;100.00;99556.63;5073128;28;20274;-35
2023/11/10 03:21:17;;;;;;;3.50;0.80;;;;;;;7.03;100.00;99556.88;5073445;28;20427;-34
2023/11/10 03:23:43;;;;;;;3.60;0.80;;;;;;;7.02;100.00;99557.91;5071919;28;20032;-35
2023/11/10 03:26:08;;;;;;;2.60;0.93;;;;;;;7.03;100.00;99562.25;5073775;28;20064;-35
2023/11/10 03:28:33;;;;;;;1.03;0.60;;;;;;;7.01;100.00;99558.16;5073132;28;20453;-35
2023/11/10 03:31:00;;;;;;;2.97;0.93;;;;;;;6.99;100.00;99558.38;5073422;28;20028;-35
2023/11/10 03:33:26;;;;;;;2.17;0.85;;;;;;;6.97;100.00;99561.28;5071761;28;20419;-34
2023/11/10 03:35:52;;;;;;;2.15;1.17;;;;;;;6.89;100.00;99545.56;5072894;28;20035;-35
2023/11/10 03:38:17;;;;;;;3.20;0.85;;;;;;;6.96;100.00;99559.66;5072725;28;20025;-35
2023/11/10 03:40:43;;;;;;;2.87;0.80;;;;;;;6.90;100.00;99557.94;5073302;28;20047;-34
2023/11/10 03:43:08;;;;;;;1.30;0.80;;;;;;;7.01;100.00;99563.53;5073775;28;20025;-35
2023/11/10 03:45:33;;;;;;;2.07;0.70;;;;;;;7.00;100.00;99567.28;5076744;28;20032;-35
2023/11/10 03:47:59;;;;;;;1.42;0.77;;;;;;;7.00;100.00;99561.91;5076475;28;20036;-35
2023/11/10 03:50:24;;;;;;;4.17;0.90;;;;;;;7.03;100.00;99558.72;5076728;28;20038;-35
2023/11/10 03:52:50;;;;;;;2.47;1.02;;;;;;;6.96;100.00;99546.22;5076378;28;20485;-35
2023/11/10 03:55:15;;;;;;;1.53;0.70;;;;;;;7.02;100.00;99554.41;5076419;28;20031;-35
2023/11/10 03:57:40;;;;;;;2.73;0.90;;;;;;;6.96;100.00;99550.78;5076751;28;20056;-35
2023/11/10 04:00:07;;;;;;;3.53;1.20;;;;;;;7.02;100.00;99554.41;5076051;28;20266;-35
2023/11/10 04:02:32;;;;;;;1.95;0.90;;;;;;;7.04;100.00;99560.38;5076365;28;20016;-35
2023/11/10 04:04:58;;;;;;;2.93;0.97;;;;;;;7.04;100.00;99569.25;5076760;28;20476;-35
2023/11/10 04:07:23;;;;;;;1.53;0.70;;;;;;;7.04;100.00;99566.56;5075548;28;20028;-35
2023/11/10 04:09:49;;;;;;;3.08;0.98;;;;;;;7.04;100.00;99563.06;5076304;28;20052;-35
2023/11/10 04:12:14;;;;;;;1.13;0.70;;;;;;;7.04;100.00;99563.06;5076876;28;20104;-35
2023/11/10 04:14:40;;;;;;;3.47;0.70;;;;;;;7.04;100.00;99565.75;5076215;28;20040;-35
2023/11/10 04:17:06;;;;;;;3.58;0.82;;;;;;;7.01;100.00;99568.91;5076383;28;20281;-35
2023/11/10 04:19:33;;;;;;;2.03;0.77;;;;;;;6.93;100.00;99570.91;5075122;28;20021;-35
2023/11/10 04:21:58;;;;;;;2.58;1.00;;;;;;;6.89;100.00;99569.75;5076672;28;20029;-35
2023/11/10 04:24:24;;;;;;;1.85;0.70;;;;;;;6.87;100.00;99549.53;5076031;28;20067;-35
2023/11/10 04:26:49;;;;;;;3.73;0.97;;;;;;;6.79;100.00;99560.66;5076345;28;20036;-35
2023/11/10 04:29:15;;;;;;;1.88;0.80;;;;;;;6.79;100.00;99564.16;5075639;28;20266;-35
2023/11/10 04:31:41;;;;;;;1.85;0.70;;;;;;;6.76;100.00;99563.81;5076424;28;20081;-35
2023/11/10 04:34:07;;;;;;;3.65;1.15;;;;;;;6.66;100.00;99548.31;5075858;28;20112;-35
2023/11/10 04:36:32;;;;;;;;;;;;;;;6.75;100.00;99570.25;5076513;28;20486;-35
2023/11/10 04:38:58;;;;;;;1.50;0.73;;;;;;;6.65;100.00;99562.78;5075738;28;20050;-35
2023/11/10 04:41:24;;;;;;;3.40;1.07;;;;;;;6.64;100.00;99563.84;5076299;28;20025;-35
2023/11/10 04:43:50;;;;;;;4.82;0.95;;;;;;;6.55;100.00;99557.22;5075657;28;20036;-35
2023/11/10 04:46:16;;;;;;;2.83;0.90;;;;;;;6.58;100.00;99562.91;5075398;28;20035;-35
2023/11/10 04:48:41;;;;;;;1.97;0.90;;;;;;;6.52;100.00;99568.41;5075593;28;20032;-35
2023/11/10 04:51:06;;;;;;;2.27;0.90;;;;;;;6.47;100.00;99565.63;5076147;28;20263;-35
2023/11/10 04:53:32;;;;;;;4.20;1.27;;;;;;;6.42;100.00;99556.41;5075660;28;20350;-35
2023/11/10 04:55:57;;;;;;;2.73;0.80;;;;;;;6.44;100.00;99564.19;5075504;28;20102;-35
2023/11/10 04:58:23;;;;;;;2.47;1.23;;;;;;;6.42;100.00;99567.13;5075407;28;20274;-35
2023/11/10 05:00:49;;;;;;;2.63;0.77;;;;;;;6.41;100.00;99557.44;5075699;28;20368;-35
2023/11/10 05:03:18;;;;;;;4.65;1.02;;;;;;;6.38;100.00;99557.09;5076068;28;20411;-35
2023/11/10 05:05:45;;;;;;;1.63;0.70;;;;;;;6.32;100.00;99553.47;5075530;28;20039;-35
2023/11/10 05:08:11;;;;;;;5.03;1.95;;;;;;;6.36;100.00;99559.22;5075389;28;20459;-35
2023/11/10 05:10:37;;;;;;;2.92;1.00;;;;;;;6.33;100.00;99557.78;5074213;28;20028;-35
2023/11/10 05:13:03;;;;;;;4.75;1.15;;;;;;;6.32;100.00;99556.16;5075551;28;20051;-35
2023/11/10 05:15:28;;;;;;;3.60;1.00;;;;;;;6.32;100.00;99560.72;5075102;28;20032;-35
2023/11/10 05:17:54;;;;;;;1.50;0.60;;;;;;;6.32;100.00;99566.91;5075423;28;20473;-35
2023/11/10 05:20:20;;;;;;;3.80;1.17;;;;;;;6.30;100.00;99568.22;5074973;28;20327;-35
2023/11/10 05:22:45;;;;;;;;;;;;;;;6.33;100.00;99576.59;5075015;28;20028;-35
2023/11/10 05:25:11;;;;;;;2.95;0.68;;;;;;;6.26;100.00;99567.84;5075646;28;20419;-35
2023/11/10 05:27:37;;;;;;;3.47;0.80;;;;;;;6.26;100.00;99570.53;5075348;28;20107;-35
2023/11/10 05:30:02;;;;;;;4.75;1.02;;;;;;;6.12;100.00;99553.84;5074782;28;20246;-35
2023/11/10 05:32:28;;;;;;;5.43;1.25;;;;;;;6.19;100.00;99564.44;5074470;28;20400;-35
2023/11/10 05:34:54;;;;;;;2.70;1.27;;;;;;;6.19;100.00;99578.69;5074916;28;20028;-35
2023/11/10 05:37:23;;;;;;;4.55;1.40;;;;;;;6.16;100.00;99573.81;5075067;28;20032;-35
2023/11/10 05:39:50;;;;;;;2.63;0.77;;;;;;;6.07;100.00;99558.28;5074514;28;20423;-35
2023/11/10 05:42:23;;;;;;;2.50;1.02;;;;;;;6.11;100.00;99568.31;5074440;28;20029;-35
2023/11/10 05:44:51;;;;;;;3.97;1.15;;;;;;;5.97;100.00;99552.66;5074473;28;20056;-39
2023/11/10 05:47:17;;;;;;;3.72;0.90;;;;;;;6.03;100.00;99560.59;5074335;28;20117;-35
2023/11/10 05:49:42;;;;;;;3.22;0.90;;;;;;;6.05;100.00;99573.78;5073368;28;20055;-35
2023/11/10 05:52:12;;;;;;;6.00;1.45;;;;;;;6.06;100.00;99578.94;5074926;28;20031;-35
2023/11/10 05:54:38;;;;;;;3.38;0.98;;;;;;;6.03;100.00;99578.56;5073963;28;20029;-35
2023/11/10 05:57:04;;;;;;;3.65;1.10;;;;;;;6.04;100.00;99583.69;5074507;28;20056;-35
2023/11/10 05:59:29;;;;;;;1.85;0.95;;;;;;;5.98;100.00;99573.91;5074983;28;20033;-35
2023/11/10 06:01:56;;;;;;;2.63;1.00;;;;;;;5.97;100.00;99583.00;5074118;28;20039;-35
2023/11/10 06:04:23;;;;;;;;;;;;;;;6.01;100.00;99580.69;5075342;28;20029;-35
2023/11/10 06:06:49;;;;;;;2.47;1.02;;;;;;;5.94;100.00;99573.53;5074071;28;20260;-35
2023/11/10 06:09:16;;;;;;;3.13;1.00;;;;;;;5.77;100.00;99552.97;5073708;28;20024;-35
2023/11/10 06:11:44;;;;;;;5.80;1.65;;;;;;;5.93;100.00;99585.31;5073979;28;20029;-35
2023/11/10 06:14:10;;;;;;;4.20;1.38;;;;;;;5.92;100.00;99593.63;5073920;28;20032;-35
2023/11/10 06:16:38;;;;;;;1.95;0.77;;;;;;;5.90;100.00;99590.28;5074692;28;20060;-35
2023/11/10 06:19:04;;;;;;;4.72;1.25;;;;;;;5.93;100.00;99600.59;5073584;28;20060;-35
2023/11/10 06:21:29;;;;;;;4.30;0.93;;;;;;;5.92;100.00;99594.44;5073846;28;20059;-35
2023/11/10 06:23:55;;;;;;;2.73;1.00;;;;;;;5.92;100.00;99597.13;5073520;28;20024;-35
2023/11/10 06:26:20;;;;;;;5.47;1.17;;;;;;;5.91;100.00;99605.38;5073787;28;20060;-35
2023/11/10 06:28:47;;;;;;;4.10;1.00;;;;;;;5.92;100.00;99605.16;5073957;28;20102;-35
2023/11/10 06:31:14;;;;;;;2.13;0.85;;;;;;;5.93;100.00;99600.59;5073748;28;20324;-35
2023/11/10 06:33:40;;;;;;;4.40;1.10;;;;;;;5.96;100.00;99600.16;5073352;28;20047;-35
2023/11/10 06:36:05;;;;;;;2.40;0.80;;;;;;;5.98;100.00;99592.69;5073863;28;20028;-35
2023/11/10 06:38:30;;;;;;;5.28;2.08;;;;;;;5.98;100.00;99597.22;5073620;28;20495;-35
2023/11/10 06:40:56;;;;;;;2.43;1.00;;;;;;;5.89;100.00;99586.78;5073554;28;20575;-35
2023/11/10 06:43:21;;;;;;;3.97;1.10;;;;;;;5.97;100.00;99614.38;5073532;28;20036;-35
2023/11/10 06:45:48;;;;;;;4.00;1.25;;;;;;;5.99;100.00;99606.91;5073862;28;20036;-35
2023/11/10 06:48:14;;;;;;;1.80;0.80;;;;;;;5.97;100.00;99604.47;5073112;28;20477;-35
2023/11/10 06:50:41;;;;;;;3.85;0.95;;;;;;;5.99;100.00;99613.09;5073778;28;20098;-35
2023/11/10 06:53:06;;;;;;;2.15;0.93;;;;;;;5.98;100.00;99613.34;5073996;28;20033;-35
2023/11/10 06:55:31;;;;;;;3.53;1.07;;;;;;;5.97;100.00;99603.66;5073773;28;20039;-35
2023/11/10 06:57:57;;;;;;;2.83;1.00;;;;;;;5.95;100.00;99603.88;5073137;28;20049;-35
2023/11/10 07:00:26;;;;;;;3.92;1.13;;;;;;;5.96;100.00;99602.03;5073470;28;20036;-35
2023/11/10 07:02:52;;;;;;;5.18;1.45;;;;;;;5.97;100.00;99592.94;5073332;28;20024;-35
2023/11/10 07:05:20;;;;;;;4.90;1.00;;;;;;;5.92;100.00;99586.38;5073944;28;20423;-35
2023/11/10 07:07:45;;;;;;;3.85;1.00;;;;;;;5.99;100.00;99590.81;5073751;28;20075;-35
2023/11/10 07:10:11;;;;;;;3.20;1.00;;;;;;;5.98;100.00;99592.69;5073609;28;20036;-35
2023/11/10 07:12:36;;;;;;;3.93;1.10;;;;;;;5.96;100.00;99584.06;5074098;28;20165;-35
2023/11/10 07:15:04;;;;;;;4.97;1.20;;;;;;;5.96;100.00;99593.97;5073597;28;20024;-35
2023/11/10 07:17:31;;;;;;;5.07;1.10;;;;;;;5.97;100.00;99587.56;5072858;28;20755;-35
2023/11/10 07:19:57;;;;;;;5.22;1.20;;;;;;;5.99;100.00;99582.75;5077559;28;20107;-35
2023/11/10 07:22:22;;;;;;;4.13;1.00;;;;;;;5.97;100.00;99580.31;5077350;28;20111;-35
2023/11/10 07:24:48;;;;;;;4.20;1.25;;;;;;;6.06;100.00;99587.00;5077447;28;20109;-35
2023/11/10 07:27:13;;;;;;;4.57;1.00;;;;;;;6.04;100.00;99581.00;5076840;28;20039;-35
2023/11/10 07:29:38;;;;;;;9.53;2.23;;;;;;;6.01;100.00;99580.69;5076805;28;20103;-35
2023/11/10 07:32:04;;;;;;;4.17;1.30;;;;;;;6.10;100.00;99596.22;5077849;28;20028;-35
2023/11/10 07:34:30;;;;;;;2.80;0.95;;;;;;;6.08;100.00;99600.16;5076758;28;20025;-35
2023/11/10 07:36:59;;;;;;;4.78;1.00;;;;;;;6.15;100.00;99598.19;5076583;28;20469;-35
2023/11/10 07:39:30;;;;;;;4.45;1.40;;;;;;;6.14;100.00;99600.03;5076565;28;20024;-35
2023/11/10 07:41:56;;;;;;;6.03;1.25;;;;;;;6.19;100.00;99604.72;5077662;28;20030;-35
2023/11/10 07:44:22;;;;;;;3.42;1.45;;;;;;;6.16;100.00;99591.78;5076808;28;20028;-35
2023/11/10 07:46:48;;;;;;;5.78;1.33;;;;;;;6.23;100.00;99600.53;5076787;28;20029;-35
2023/11/10 07:49:13;;;;;;;3.20;1.15;;;;;;;6.22;100.00;99596.22;5076641;28;20460;-35
2023/11/10 07:51:39;;;;;;;5.43;1.70;;;;;;;6.23;100.00;99595.16;5075446;28;20024;-35
2023/11/10 07:54:05;;;;;;;2.65;1.27;;;;;;;6.22;100.00;99590.84;5076559;28;20059;-35
2023/11/10 07:56:30;;;;;;;6.57;1.33;;;;;;;6.30;100.00;99601.25;5077096;28;20445;-35
2023/11/10 07:58:55;;;;;;;5.30;1.30;;;;;;;6.33;100.00;99606.13;5077368;28;20029;-35
2023/11/10 08:01:22;;;;;;;3.27;1.30;;;;;;;6.36;100.00;99597.63;5076237;28;20025;-35
2023/11/10 08:03:47;;;;;;;5.18;1.38;;;;;;;6.38;100.00;99603.56;5076938;28;20274;-35
2023/11/10 08:06:12;;;;;;;3.93;1.10;;;;;;;6.44;100.00;99605.31;5076451;28;20036;-35
2023/11/10 08:08:39;;;;;;;7.90;1.97;;;;;;;6.48;100.00;99594.09;5076323;28;20039;-35
2023/11/10 08:11:05;;;;;;;;;;;;;;;6.55;100.00;99597.50;5077503;28;20035;-35
2023/11/10 08:13:34;;;;;;;6.90;1.20;;;;;;;6.51;100.00;99590.97;5076208;28;19908;-35
2023/11/10 08:16:00;;;;;;;2.67;1.20;;;;;;;6.56;100.00;99602.63;5076646;28;20058;-35
2023/11/10 08:18:25;;;;;;;4.95;1.20;;;;;;;6.56;100.00;99608.00;5076122;28;20021;-35
2023/11/10 08:20:51;;;;;;;6.40;1.40;;;;;;;6.59;100.00;99604.03;5075938;28;20033;-35
2023/11/10 08:23:16;;;;;;;5.67;1.50;;;;;;;6.60;100.00;99601.09;5076177;28;20029;-35
2023/11/10 08:25:41;;;;;;;5.80;1.57;;;;;;;6.60;100.00;99611.03;5076200;28;20021;-35
2023/11/10 08:28:08;;;;;;;4.77;1.60;;;;;;;6.65;100.00;99603.09;5076058;28;20021;-35
2023/11/10 08:30:34;;;;;;;6.55;1.60;;;;;;;6.64;100.00;99599.59;5075768;28;20473;-35
2023/11/10 08:32:59;;;;;;;5.70;1.50;;;;;;;6.70;100.00;99595.13;5075954;28;20043;-35
2023/11/10 08:35:25;;;;;;;4.53;1.37;;;;;;;6.70;100.00;99579.84;5075940;28;20055;-35
2023/11/10 08:37:50;;;;;;;4.10;1.52;;;;;;;6.64;100.00;99563.84;5075723;28;20074;-35
2023/11/10 08:40:16;;;;;;;4.93;1.65;;;;;;;6.70;100.00;99579.03;5075850;28;20103;-35
2023/11/10 08:42:42;;;;;;;6.32;1.88;;;;;;;6.71;100.00;99581.47;5075733;28;20021;-35
2023/11/10 08:45:08;;;;;;;5.53;1.87;;;;;;;6.75;100.00;99587.19;5076329;28;20032;-35
2023/11/10 08:47:33;;;;;;;;;;;;;;;6.81;100.00;99583.53;5075991;28;20540;-35
2023/11/10 08:49:59;;;;;;;5.57;1.50;;;;;;;6.81;100.00;99585.41;5075700;28;19999;-35
2023/11/10 08:52:25;;;;;;;7.65;1.65;;;;;;;6.84;100.00;99575.03;5075827;28;20259;-35
2023/11/10 08:54:51;;;;;;;6.60;1.37;;;;;;;6.87;100.00;99579.91;5075533;28;20081;-35
2023/11/10 08:57:16;;;;;;;;;;;;;;;6.90;100.00;99579.44;5076378;28;20468;-35
2023/11/10 08:59:41;;;;;;;4.63;1.30;;;;;;;6.91;100.00;99574.88;5075448;28;19912;-35
2023/11/10 09:02:07;;;;;;;6.63;1.40;;;;;;;6.96;100.00;99581.16;5075405;28;20372;-35
2023/11/10 09:04:32;;;;;;;6.50;2.10;;;;;;;6.88;100.00;99560.06;5075277;28;20055;-35
2023/11/10 09:06:58;;;;;;;6.20;1.55;;;;;;;7.02;100.00;99579.41;5075791;28;20120;-35
2023/11/10 09:09:23;;;;;;;6.63;1.73;;;;;;;7.06;100.00;99582.44;5075695;28;20021;-35
2023/11/10 09:11:49;;;;;;;7.10;1.43;;;;;;;7.02;100.00;99582.09;5075699;28;20508;-35
2023/11/10 09:14:14;;;;;;;5.05;1.48;;;;;;;7.03;100.00;99582.91;5075563;28;20668;-35
2023/11/10 09:16:40;;;;;;;8.03;1.83;;;;;;;7.05;100.00;99588.88;5075267;28;20028;-35
2023/11/10 09:19:05;;;;;;;6.63;1.45;;;;;;;7.06;100.00;99585.13;5074668;28;20070;-35
2023/11/10 09:21:31;;;;;;;6.07;1.50;;;;;;;7.07;100.00;99594.81;5075010;28;20059;-35
2023/11/10 09:23:56;;;;;;;6.10;1.33;;;;;;;7.09;100.00;99577.41;5074968;28;20028;-35
2023/11/10 09:26:21;;;;;;;11.70;2.87;;;;;;;7.07;100.00;99574.13;5074703;28;20028;-35
2023/11/10 09:28:49;;;;;;;5.43;1.70;;;;;;;7.13;100.00;99572.38;5074502;28;20035;-35
2023/11/10 09:31:15;;;;;;;5.10;1.33;;;;;;;7.11;100.00;99555.66;5075326;28;20047;-35
2023/11/10 09:33:40;;;;;;;6.47;1.75;;;;;;;7.28;100.00;99582.59;5074686;28;20029;-35
2023/11/10 09:36:06;;;;;;;5.03;2.57;;;;;;;7.30;100.00;99575.09;5074919;28;20044;-35
2023/11/10 09:38:33;;;;;;;4.72;1.45;;;;;;;7.25;100.00;99565.06;5074610;28;20032;-35
2023/11/10 09:41:02;;;;;;;7.63;1.60;;;;;;;7.39;100.00;99577.16;5073526;28;20032;-35
2023/11/10 09:43:30;;;;;;;7.25;1.60;;;;;;;7.35;100.00;99573.31;5074764;28;20024;-35
2023/11/10 09:46:00;;;;;;;5.95;1.88;;;;;;;7.23;100.00;99554.56;5074789;28;20103;-35
2023/11/10 09:48:27;;;;;;;5.45;1.42;;;;;;;7.31;100.00;99568.66;5074133;28;20035;-35
2023/11/10 09:50:55;;;;;;;4.55;1.55;;;;;;;7.28;100.00;99561.91;5075009;28;20037;-35
2023/11/10 09:53:22;;;;;;;5.57;1.50;;;;;;;7.29;100.00;99563.53;5074043;28;20021;-35
2023/11/10 09:55:49;;;;;;;4.95;1.35;;;;;;;7.30;100.00;99559.78;5074867;28;20028;-35
2023/11/10 09:58:15;;;;;;;5.68;1.50;;;;;;;7.27;100.00;99560.28;5075365;28;20044;-35
2023/11/10 10:00:42;;;;;;;4.05;1.40;;;;;;;7.20;100.00;99548.84;5075064;28;20029;-35
2023/11/10 10:03:08;;;;;;;3.58;1.27;;;;;;;7.10;100.00;99543.28;5074163;28;20028;-35
2023/11/10 10:05:34;;;;;;;4.75;1.52;;;;;;;7.16;100.00;99558.44;5074466;28;20488;-35
2023/11/10 10:07:59;;;;;;;7.60;1.90;;;;;;;7.08;100.00;99543.53;5074399;28;20042;-35
2023/11/10 10:10:26;;;;;;;5.55;1.70;;;;;;;7.13;100.00;99556.25;5074866;28;20035;-35
2023/11/10 10:12:52;;;;;;;5.00;1.50;;;;;;;7.06;100.00;99548.31;5073970;28;20123;-35
2023/11/10 10:15:26;;;;;;;3.35;1.20;;;;;;;7.11;100.00;99559.16;5074587;28;20029;-35
2023/11/10 10:17:53;;;;;;;5.03;1.30;;;;;;;7.04;100.00;99546.94;5073846;28;20111;-35
2023/11/10 10:20:21;;;;;;;4.80;1.40;;;;;;;7.07;100.00;99557.19;5073638;28;20023;-35
2023/11/10 10:22:48;;;;;;;5.05;1.73;;;;;;;7.09;100.00;99560.47;5074638;28;20111;-35
2023/11/10 10:25:15;;;;;;;4.32;1.10;;;;;;;7.03;100.00;99548.81;5073815;28;20078;-35
2023/11/10 10:27:44;;;;;;;3.40;1.55;;;;;;;7.06;100.00;99563.63;5073806;28;20471;-35
2023/11/10 10:30:10;;;;;;;4.55;1.35;;;;;;;7.03;100.00;99561.41;5074342;28;20031;-35
2023/11/10 10:32:36;;;;;;;5.75;1.50;;;;;;;6.91;100.00;99543.44;5074266;28;20051;-35
2023/11/10 10:35:03;;;;;;;5.05;1.40;;;;;;;6.99;100.00;99555.72;5073427;28;20107;-35
2023/11/10 10:37:31;;;;;;;;;;;;;;;7.04;100.00;99549.63;5074028;28;20029;-35
2023/11/10 10:40:00;;;;;;;3.35;1.33;;;;;;;7.02;100.00;99552.53;5073681;28;20011;-35
2023/11/10 10:42:31;;;;;;;5.50;1.30;;;;;;;7.07;100.00;99543.75;5073601;28;20056;-35
2023/11/10 10:44:59;;;;;;;2.78;1.00;;;;;;;6.95;100.00;99530.34;5074447;28;20342;-35
2023/11/10 10:47:25;;;;;;;4.82;1.35;;;;;;;7.09;100.00;99547.03;5073482;28;20502;-35
2023/11/10 10:49:50;;;;;;;4.80;1.20;;;;;;;7.15;100.00;99551.44;5073200;28;20028;-35
2023/11/10 10:52:18;;;;;;;3.58;1.20;;;;;;;7.18;100.00;99542.91;5074246;28;20070;-35
2023/11/10 10:54:43;;;;;;;4.97;1.30;;;;;;;7.22;100.00;99546.72;5073784;28;20035;-35
2023/11/10 10:57:09;;;;;;;5.13;1.20;;;;;;;7.23;100.00;99546.50;5073470;28;20053;-35
2023/11/10 10:59:35;;;;;;;6.15;2.42;;;;;;;7.23;100.00;99527.69;5074285;28;20380;-35
2023/11/10 11:02:03;;;;;;;;;;;;;;;7.36;100.00;99545.38;5073845;28;20082;-35
2023/11/10 11:04:31;;;;;;;3.53;1.00;;;;;;;7.36;100.00;99549.94;5073424;28;19933;-35
2023/11/10 11:07:21;;;;;;;6.15;1.77;;;;;;;7.36;100.00;99537.28;5073455;28;20480;-35
2023/11/10 11:10:06;;;;;;;2.95;0.85;;;;;;;7.35;100.00;99532.97;5072698;28;20438;-35
2023/11/10 11:13:03;;;;;;;3.67;0.98;;;;;;;7.40;100.00;99541.13;5073892;28;20480;-35
2023/11/10 11:15:43;;;;;;;3.45;1.45;;;;;;;7.39;100.00;99542.19;5073611;28;20358;-35
2023/11/10 11:18:18;;;;;;;3.45;1.05;;;;;;;7.42;100.00;99530.16;5073310;28;20444;-35
2023/11/10 11:20:48;;;;;;;3.17;1.10;;;;;;;7.43;100.00;99534.47;5073775;28;20024;-35
2023/11/10 11:23:14;;;;;;;4.35;1.13;;;;;;;7.47;100.00;99530.25;5072968;28;20508;-35
2023/11/10 11:25:40;;;;;;;6.90;1.85;;;;;;;7.46;100.00;99533.97;5073812;28;20029;-35
2023/11/10 11:28:06;;;;;;;4.55;1.20;;;;;;;7.47;100.00;99527.56;5073191;28;20037;-35
2023/11/10 11:30:36;;;;;;;5.25;0.98;;;;;;;7.43;100.00;99529.09;5073494;28;20120;-35
2023/11/10 11:33:11;;;;;;;5.03;1.38;;;;;;;7.48;100.00;99529.19;5073435;28;20028;-35